sensor_id;sensor_type;location;lat;lon;timestamp;P1;durP1;ratioP1;P2;durP2;ratioP2
21233;SDS011;10774;42.178;26.578;2024-01-06T00:01:28;14.98;;;10.05;;
21233;SDS011;10774;42.178;26.578;2024-01-06T00:03:54;17.60;;;12.60;;
21233;SDS011;10774;42.178;26.578;2024-01-06T00:06:20;32.90;;;18.23;;
21233;SDS011;10774;42.178;26.578;2024-01-06T00:08:46;39.55;;;20.75;;
21233;SDS011;10774;42.178;26.578;2024-01-06T00:11:18;26.77;;;16.23;;
21233;SDS011;10774;42.178;26.578;2024-01-06T00:13:44;22.63;;;13.50;;
21233;SDS011;10774;42.178;26.578;2024-01-06T00:16:09;25.23;;;16.10;;
21233;SDS011;10774;42.178;26.578;2024-01-06T00:18:35;25.95;;;15.10;;
21233;SDS011;10774;42.178;26.578;2024-01-06T00:21:00;24.90;;;15.65;;
21233;SDS011;10774;42.178;26.578;2024-01-06T00:23:25;22.90;;;13.80;;
21233;SDS011;10774;42.178;26.578;2024-01-06T00:25:51;24.80;;;14.00;;
21233;SDS011;10774;42.178;26.578;2024-01-06T00:28:16;28.17;;;15.45;;
21233;SDS011;10774;42.178;26.578;2024-01-06T00:30:42;22.70;;;15.27;;
21233;SDS011;10774;42.178;26.578;2024-01-06T00:33:07;29.60;;;19.20;;
21233;SDS011;10774;42.178;26.578;2024-01-06T00:35:32;25.45;;;14.45;;
21233;SDS011;10774;42.178;26.578;2024-01-06T00:37:58;27.20;;;17.25;;
21233;SDS011;10774;42.178;26.578;2024-01-06T00:40:25;27.23;;;17.80;;
21233;SDS011;10774;42.178;26.578;2024-01-06T00:42:50;31.00;;;19.35;;
21233;SDS011;10774;42.178;26.578;2024-01-06T00:45:16;26.65;;;17.60;;
21233;SDS011;10774;42.178;26.578;2024-01-06T00:47:42;20.55;;;13.10;;
21233;SDS011;10774;42.178;26.578;2024-01-06T00:50:07;24.38;;;15.57;;
21233;SDS011;10774;42.178;26.578;2024-01-06T00:52:33;20.25;;;13.52;;
21233;SDS011;10774;42.178;26.578;2024-01-06T00:54:58;17.50;;;10.55;;
21233;SDS011;10774;42.178;26.578;2024-01-06T00:57:24;16.42;;;10.05;;
21233;SDS011;10774;42.178;26.578;2024-01-06T00:59:49;15.95;;;10.98;;
21233;SDS011;10774;42.178;26.578;2024-01-06T01:39:49;6.70;;;3.80;;
21233;SDS011;10774;42.178;26.578;2024-01-06T01:42:14;8.27;;;3.78;;
21233;SDS011;10774;42.178;26.578;2024-01-06T01:44:39;5.38;;;3.50;;
21233;SDS011;10774;42.178;26.578;2024-01-06T01:47:05;5.78;;;3.53;;
21233;SDS011;10774;42.178;26.578;2024-01-06T01:49:31;4.85;;;3.47;;
21233;SDS011;10774;42.178;26.578;2024-01-06T01:51:57;6.57;;;3.40;;
21233;SDS011;10774;42.178;26.578;2024-01-06T01:54:23;11.50;;;4.97;;
21233;SDS011;10774;42.178;26.578;2024-01-06T01:56:48;9.80;;;5.25;;
21233;SDS011;10774;42.178;26.578;2024-01-06T01:59:14;13.85;;;7.13;;
21233;SDS011;10774;42.178;26.578;2024-01-06T02:01:43;13.25;;;7.97;;
21233;SDS011;10774;42.178;26.578;2024-01-06T02:04:09;10.90;;;7.00;;
21233;SDS011;10774;42.178;26.578;2024-01-06T02:06:34;14.55;;;8.70;;
21233;SDS011;10774;42.178;26.578;2024-01-06T02:09:00;14.05;;;8.38;;
21233;SDS011;10774;42.178;26.578;2024-01-06T02:11:26;10.23;;;5.88;;
21233;SDS011;10774;42.178;26.578;2024-01-06T02:13:51;9.93;;;5.60;;
21233;SDS011;10774;42.178;26.578;2024-01-06T02:16:16;9.13;;;5.40;;
21233;SDS011;10774;42.178;26.578;2024-01-06T02:18:42;8.18;;;5.20;;
21233;SDS011;10774;42.178;26.578;2024-01-06T02:21:08;6.93;;;5.13;;
21233;SDS011;10774;42.178;26.578;2024-01-06T02:23:35;7.35;;;4.55;;
21233;SDS011;10774;42.178;26.578;2024-01-06T02:26:01;6.20;;;4.25;;
21233;SDS011;10774;42.178;26.578;2024-01-06T02:28:27;10.05;;;5.22;;
21233;SDS011;10774;42.178;26.578;2024-01-06T02:30:52;10.10;;;5.63;;
21233;SDS011;10774;42.178;26.578;2024-01-06T02:33:18;10.10;;;5.55;;
21233;SDS011;10774;42.178;26.578;2024-01-06T02:35:48;7.00;;;4.53;;
21233;SDS011;10774;42.178;26.578;2024-01-06T02:38:14;9.57;;;4.93;;
21233;SDS011;10774;42.178;26.578;2024-01-06T02:40:39;9.50;;;4.78;;
21233;SDS011;10774;42.178;26.578;2024-01-06T02:43:05;9.15;;;5.20;;
21233;SDS011;10774;42.178;26.578;2024-01-06T02:45:30;6.95;;;4.47;;
21233;SDS011;10774;42.178;26.578;2024-01-06T02:47:56;7.32;;;4.57;;
21233;SDS011;10774;42.178;26.578;2024-01-06T02:50:21;8.35;;;5.13;;
21233;SDS011;10774;42.178;26.578;2024-01-06T02:52:47;30.23;;;12.77;;
21233;SDS011;10774;42.178;26.578;2024-01-06T02:55:12;27.60;;;11.60;;
21233;SDS011;10774;42.178;26.578;2024-01-06T02:57:38;24.30;;;9.57;;
21233;SDS011;10774;42.178;26.578;2024-01-06T03:00:05;14.38;;;7.07;;
21233;SDS011;10774;42.178;26.578;2024-01-06T03:02:32;8.60;;;4.80;;
21233;SDS011;10774;42.178;26.578;2024-01-06T03:04:58;7.03;;;3.75;;
21233;SDS011;10774;42.178;26.578;2024-01-06T03:07:23;9.20;;;3.70;;
21233;SDS011;10774;42.178;26.578;2024-01-06T03:09:49;8.40;;;3.67;;
21233;SDS011;10774;42.178;26.578;2024-01-06T03:12:14;8.30;;;3.70;;
21233;SDS011;10774;42.178;26.578;2024-01-06T03:14:40;4.50;;;3.38;;
21233;SDS011;10774;42.178;26.578;2024-01-06T03:17:05;9.00;;;4.57;;
21233;SDS011;10774;42.178;26.578;2024-01-06T03:19:31;10.07;;;5.85;;
21233;SDS011;10774;42.178;26.578;2024-01-06T03:21:56;10.82;;;6.25;;
21233;SDS011;10774;42.178;26.578;2024-01-06T03:24:23;7.10;;;4.78;;
21233;SDS011;10774;42.178;26.578;2024-01-06T03:26:49;9.95;;;4.80;;
21233;SDS011;10774;42.178;26.578;2024-01-06T03:29:15;7.35;;;4.50;;
21233;SDS011;10774;42.178;26.578;2024-01-06T03:31:44;8.25;;;4.68;;
21233;SDS011;10774;42.178;26.578;2024-01-06T03:34:09;9.00;;;4.72;;
21233;SDS011;10774;42.178;26.578;2024-01-06T03:36:38;8.05;;;4.22;;
21233;SDS011;10774;42.178;26.578;2024-01-06T03:39:06;7.35;;;4.90;;
21233;SDS011;10774;42.178;26.578;2024-01-06T03:41:32;9.50;;;4.65;;
21233;SDS011;10774;42.178;26.578;2024-01-06T03:43:58;7.75;;;4.75;;
21233;SDS011;10774;42.178;26.578;2024-01-06T03:46:24;9.73;;;4.50;;
21233;SDS011;10774;42.178;26.578;2024-01-06T03:48:49;8.60;;;4.18;;
21233;SDS011;10774;42.178;26.578;2024-01-06T03:51:15;8.65;;;4.50;;
21233;SDS011;10774;42.178;26.578;2024-01-06T03:53:40;15.43;;;8.85;;
21233;SDS011;10774;42.178;26.578;2024-01-06T03:56:06;18.73;;;10.98;;
21233;SDS011;10774;42.178;26.578;2024-01-06T03:58:32;19.75;;;12.52;;
21233;SDS011;10774;42.178;26.578;2024-01-06T04:00:58;23.45;;;14.00;;
21233;SDS011;10774;42.178;26.578;2024-01-06T04:03:23;19.77;;;13.38;;
21233;SDS011;10774;42.178;26.578;2024-01-06T04:05:49;15.77;;;10.68;;
21233;SDS011;10774;42.178;26.578;2024-01-06T04:08:14;15.50;;;10.43;;
21233;SDS011;10774;42.178;26.578;2024-01-06T04:10:40;9.43;;;6.50;;
21233;SDS011;10774;42.178;26.578;2024-01-06T04:13:06;10.85;;;5.65;;
21233;SDS011;10774;42.178;26.578;2024-01-06T04:15:32;8.18;;;4.57;;
21233;SDS011;10774;42.178;26.578;2024-01-06T04:18:00;6.88;;;4.85;;
21233;SDS011;10774;42.178;26.578;2024-01-06T04:20:27;10.10;;;5.50;;
21233;SDS011;10774;42.178;26.578;2024-01-06T04:22:53;8.68;;;5.65;;
21233;SDS011;10774;42.178;26.578;2024-01-06T04:25:18;8.77;;;5.57;;
21233;SDS011;10774;42.178;26.578;2024-01-06T04:27:44;10.00;;;5.65;;
21233;SDS011;10774;42.178;26.578;2024-01-06T04:30:11;9.60;;;5.88;;
21233;SDS011;10774;42.178;26.578;2024-01-06T04:32:37;12.00;;;7.38;;
21233;SDS011;10774;42.178;26.578;2024-01-06T04:35:02;12.80;;;7.55;;
21233;SDS011;10774;42.178;26.578;2024-01-06T04:37:28;14.05;;;8.00;;
21233;SDS011;10774;42.178;26.578;2024-01-06T04:39:53;16.48;;;8.93;;
21233;SDS011;10774;42.178;26.578;2024-01-06T04:42:19;22.25;;;13.10;;
21233;SDS011;10774;42.178;26.578;2024-01-06T04:44:47;22.08;;;14.52;;
21233;SDS011;10774;42.178;26.578;2024-01-06T04:47:12;26.90;;;16.23;;
21233;SDS011;10774;42.178;26.578;2024-01-06T04:49:38;14.38;;;9.57;;
21233;SDS011;10774;42.178;26.578;2024-01-06T04:52:03;17.48;;;12.90;;
21233;SDS011;10774;42.178;26.578;2024-01-06T04:54:29;15.60;;;9.60;;
21233;SDS011;10774;42.178;26.578;2024-01-06T04:56:54;18.15;;;10.68;;
21233;SDS011;10774;42.178;26.578;2024-01-06T04:59:21;19.50;;;11.20;;
21233;SDS011;10774;42.178;26.578;2024-01-06T05:01:46;13.05;;;9.40;;
21233;SDS011;10774;42.178;26.578;2024-01-06T05:04:12;28.75;;;16.48;;
21233;SDS011;10774;42.178;26.578;2024-01-06T05:06:37;21.27;;;13.30;;
21233;SDS011;10774;42.178;26.578;2024-01-06T05:09:02;22.10;;;12.90;;
21233;SDS011;10774;42.178;26.578;2024-01-06T05:11:28;16.15;;;10.15;;
21233;SDS011;10774;42.178;26.578;2024-01-06T05:13:54;16.80;;;10.15;;
21233;SDS011;10774;42.178;26.578;2024-01-06T05:16:19;14.93;;;10.45;;
21233;SDS011;10774;42.178;26.578;2024-01-06T05:18:45;14.50;;;8.60;;
21233;SDS011;10774;42.178;26.578;2024-01-06T05:21:10;16.20;;;8.95;;
21233;SDS011;10774;42.178;26.578;2024-01-06T05:23:36;13.05;;;7.53;;
21233;SDS011;10774;42.178;26.578;2024-01-06T05:26:01;11.90;;;7.25;;
21233;SDS011;10774;42.178;26.578;2024-01-06T05:28:26;15.88;;;10.10;;
21233;SDS011;10774;42.178;26.578;2024-01-06T05:30:52;14.80;;;8.82;;
21233;SDS011;10774;42.178;26.578;2024-01-06T05:33:17;12.60;;;8.65;;
21233;SDS011;10774;42.178;26.578;2024-01-06T05:35:43;20.05;;;10.20;;
21233;SDS011;10774;42.178;26.578;2024-01-06T05:38:08;17.25;;;11.02;;
21233;SDS011;10774;42.178;26.578;2024-01-06T05:40:34;17.50;;;9.63;;
21233;SDS011;10774;42.178;26.578;2024-01-06T05:42:59;15.30;;;9.50;;
21233;SDS011;10774;42.178;26.578;2024-01-06T05:45:24;16.00;;;8.93;;
21233;SDS011;10774;42.178;26.578;2024-01-06T05:47:50;10.95;;;7.85;;
21233;SDS011;10774;42.178;26.578;2024-01-06T05:50:16;11.05;;;6.80;;
21233;SDS011;10774;42.178;26.578;2024-01-06T05:52:41;13.52;;;7.68;;
21233;SDS011;10774;42.178;26.578;2024-01-06T05:55:07;9.27;;;6.53;;
21233;SDS011;10774;42.178;26.578;2024-01-06T05:57:34;11.82;;;7.07;;
21233;SDS011;10774;42.178;26.578;2024-01-06T05:59:59;13.15;;;7.40;;
21233;SDS011;10774;42.178;26.578;2024-01-06T06:02:25;12.45;;;6.68;;
21233;SDS011;10774;42.178;26.578;2024-01-06T06:04:51;16.88;;;9.80;;
21233;SDS011;10774;42.178;26.578;2024-01-06T06:07:17;13.77;;;7.68;;
21233;SDS011;10774;42.178;26.578;2024-01-06T06:09:42;13.10;;;8.23;;
21233;SDS011;10774;42.178;26.578;2024-01-06T06:12:08;17.40;;;9.77;;
21233;SDS011;10774;42.178;26.578;2024-01-06T06:14:33;16.33;;;10.38;;
21233;SDS011;10774;42.178;26.578;2024-01-06T06:16:59;23.92;;;14.05;;
21233;SDS011;10774;42.178;26.578;2024-01-06T06:19:24;25.45;;;15.45;;
21233;SDS011;10774;42.178;26.578;2024-01-06T06:21:50;19.80;;;11.90;;
21233;SDS011;10774;42.178;26.578;2024-01-06T06:24:15;23.48;;;13.93;;
21233;SDS011;10774;42.178;26.578;2024-01-06T06:26:41;21.63;;;12.23;;
21233;SDS011;10774;42.178;26.578;2024-01-06T06:29:06;21.30;;;12.45;;
21233;SDS011;10774;42.178;26.578;2024-01-06T06:31:31;17.50;;;11.48;;
21233;SDS011;10774;42.178;26.578;2024-01-06T06:33:57;15.48;;;8.38;;
21233;SDS011;10774;42.178;26.578;2024-01-06T06:36:22;16.25;;;8.35;;
21233;SDS011;10774;42.178;26.578;2024-01-06T06:38:48;13.85;;;8.13;;
21233;SDS011;10774;42.178;26.578;2024-01-06T06:41:13;17.40;;;10.05;;
21233;SDS011;10774;42.178;26.578;2024-01-06T06:43:38;16.65;;;9.95;;
21233;SDS011;10774;42.178;26.578;2024-01-06T06:46:04;22.58;;;11.38;;
21233;SDS011;10774;42.178;26.578;2024-01-06T06:48:29;16.85;;;10.73;;
21233;SDS011;10774;42.178;26.578;2024-01-06T06:50:55;17.48;;;9.00;;
21233;SDS011;10774;42.178;26.578;2024-01-06T06:53:20;19.33;;;9.32;;
21233;SDS011;10774;42.178;26.578;2024-01-06T06:55:46;12.75;;;8.25;;
21233;SDS011;10774;42.178;26.578;2024-01-06T06:58:12;17.83;;;9.80;;
21233;SDS011;10774;42.178;26.578;2024-01-06T07:00:37;14.70;;;8.63;;
21233;SDS011;10774;42.178;26.578;2024-01-06T07:03:03;33.03;;;21.55;;
21233;SDS011;10774;42.178;26.578;2024-01-06T07:05:29;31.27;;;20.35;;
21233;SDS011;10774;42.178;26.578;2024-01-06T07:07:55;28.20;;;17.02;;
21233;SDS011;10774;42.178;26.578;2024-01-06T07:10:20;23.73;;;16.77;;
21233;SDS011;10774;42.178;26.578;2024-01-06T07:12:45;20.85;;;16.02;;
21233;SDS011;10774;42.178;26.578;2024-01-06T07:15:11;17.92;;;12.20;;
21233;SDS011;10774;42.178;26.578;2024-01-06T07:17:37;22.52;;;11.48;;
21233;SDS011;10774;42.178;26.578;2024-01-06T07:20:03;18.00;;;11.65;;
21233;SDS011;10774;42.178;26.578;2024-01-06T07:22:32;19.67;;;13.75;;
21233;SDS011;10774;42.178;26.578;2024-01-06T07:24:59;19.42;;;12.45;;
21233;SDS011;10774;42.178;26.578;2024-01-06T07:27:25;17.52;;;11.48;;
21233;SDS011;10774;42.178;26.578;2024-01-06T07:29:50;16.48;;;9.23;;
21233;SDS011;10774;42.178;26.578;2024-01-06T07:32:16;15.25;;;9.52;;
21233;SDS011;10774;42.178;26.578;2024-01-06T07:34:41;14.80;;;9.18;;
21233;SDS011;10774;42.178;26.578;2024-01-06T07:37:08;15.45;;;9.98;;
21233;SDS011;10774;42.178;26.578;2024-01-06T07:39:33;23.08;;;14.90;;
21233;SDS011;10774;42.178;26.578;2024-01-06T07:41:59;29.15;;;18.98;;
21233;SDS011;10774;42.178;26.578;2024-01-06T07:44:24;24.27;;;17.63;;
21233;SDS011;10774;42.178;26.578;2024-01-06T07:46:52;30.88;;;15.80;;
21233;SDS011;10774;42.178;26.578;2024-01-06T07:49:18;25.52;;;14.00;;
21233;SDS011;10774;42.178;26.578;2024-01-06T07:51:43;23.52;;;14.35;;
21233;SDS011;10774;42.178;26.578;2024-01-06T07:54:09;13.50;;;9.32;;
21233;SDS011;10774;42.178;26.578;2024-01-06T07:56:34;17.10;;;9.93;;
21233;SDS011;10774;42.178;26.578;2024-01-06T07:59:03;17.02;;;9.50;;
21233;SDS011;10774;42.178;26.578;2024-01-06T08:01:29;15.10;;;6.88;;
21233;SDS011;10774;42.178;26.578;2024-01-06T08:03:55;11.25;;;6.32;;
21233;SDS011;10774;42.178;26.578;2024-01-06T08:06:20;10.52;;;5.40;;
21233;SDS011;10774;42.178;26.578;2024-01-06T08:08:46;11.00;;;5.20;;
21233;SDS011;10774;42.178;26.578;2024-01-06T08:11:12;13.75;;;5.90;;
21233;SDS011;10774;42.178;26.578;2024-01-06T08:13:37;11.70;;;5.13;;
21233;SDS011;10774;42.178;26.578;2024-01-06T08:16:03;12.00;;;5.90;;
21233;SDS011;10774;42.178;26.578;2024-01-06T08:18:29;13.95;;;7.20;;
21233;SDS011;10774;42.178;26.578;2024-01-06T08:20:54;13.52;;;7.68;;
21233;SDS011;10774;42.178;26.578;2024-01-06T08:23:20;18.67;;;9.00;;
21233;SDS011;10774;42.178;26.578;2024-01-06T08:25:45;15.93;;;6.47;;
21233;SDS011;10774;42.178;26.578;2024-01-06T08:28:11;12.90;;;4.85;;
21233;SDS011;10774;42.178;26.578;2024-01-06T08:30:37;7.10;;;3.67;;
21233;SDS011;10774;42.178;26.578;2024-01-06T08:33:02;9.30;;;4.57;;
21233;SDS011;10774;42.178;26.578;2024-01-06T08:35:28;7.35;;;4.85;;
21233;SDS011;10774;42.178;26.578;2024-01-06T08:37:53;8.98;;;4.60;;
21233;SDS011;10774;42.178;26.578;2024-01-06T08:40:19;12.02;;;4.82;;
21233;SDS011;10774;42.178;26.578;2024-01-06T08:42:44;7.55;;;4.20;;
21233;SDS011;10774;42.178;26.578;2024-01-06T08:45:10;10.65;;;3.97;;
21233;SDS011;10774;42.178;26.578;2024-01-06T08:47:35;13.68;;;6.35;;
21233;SDS011;10774;42.178;26.578;2024-01-06T08:50:00;13.70;;;5.93;;
21233;SDS011;10774;42.178;26.578;2024-01-06T08:52:26;13.43;;;5.03;;
21233;SDS011;10774;42.178;26.578;2024-01-06T08:54:51;14.13;;;6.50;;
21233;SDS011;10774;42.178;26.578;2024-01-06T08:57:16;17.85;;;5.50;;
21233;SDS011;10774;42.178;26.578;2024-01-06T08:59:43;12.07;;;5.55;;
21233;SDS011;10774;42.178;26.578;2024-01-06T09:02:10;14.20;;;6.25;;
21233;SDS011;10774;42.178;26.578;2024-01-06T09:04:36;10.13;;;4.63;;
21233;SDS011;10774;42.178;26.578;2024-01-06T09:07:01;7.20;;;3.92;;
21233;SDS011;10774;42.178;26.578;2024-01-06T09:09:26;7.88;;;4.60;;
21233;SDS011;10774;42.178;26.578;2024-01-06T09:11:53;12.77;;;5.85;;
21233;SDS011;10774;42.178;26.578;2024-01-06T09:14:18;13.30;;;4.85;;
21233;SDS011;10774;42.178;26.578;2024-01-06T09:16:44;16.80;;;4.93;;
21233;SDS011;10774;42.178;26.578;2024-01-06T09:19:10;8.90;;;4.80;;
21233;SDS011;10774;42.178;26.578;2024-01-06T09:21:35;14.48;;;5.35;;
21233;SDS011;10774;42.178;26.578;2024-01-06T09:24:01;10.38;;;4.22;;
21233;SDS011;10774;42.178;26.578;2024-01-06T09:26:31;8.68;;;3.75;;
21233;SDS011;10774;42.178;26.578;2024-01-06T09:29:00;9.85;;;3.72;;
21233;SDS011;10774;42.178;26.578;2024-01-06T09:31:26;8.15;;;3.50;;
21233;SDS011;10774;42.178;26.578;2024-01-06T09:33:52;8.68;;;4.57;;
21233;SDS011;10774;42.178;26.578;2024-01-06T09:36:17;9.77;;;4.38;;
21233;SDS011;10774;42.178;26.578;2024-01-06T09:38:43;13.00;;;5.15;;
21233;SDS011;10774;42.178;26.578;2024-01-06T09:41:09;10.98;;;5.45;;
21233;SDS011;10774;42.178;26.578;2024-01-06T09:43:34;13.35;;;5.35;;
21233;SDS011;10774;42.178;26.578;2024-01-06T09:46:23;11.20;;;5.47;;
21233;SDS011;10774;42.178;26.578;2024-01-06T09:48:52;10.13;;;5.65;;
21233;SDS011;10774;42.178;26.578;2024-01-06T09:51:19;8.63;;;4.32;;
21233;SDS011;10774;42.178;26.578;2024-01-06T09:53:50;9.75;;;4.20;;
21233;SDS011;10774;42.178;26.578;2024-01-06T09:56:21;10.43;;;5.07;;
21233;SDS011;10774;42.178;26.578;2024-01-06T09:58:49;8.50;;;4.32;;
21233;SDS011;10774;42.178;26.578;2024-01-06T10:01:15;12.98;;;5.07;;
21233;SDS011;10774;42.178;26.578;2024-01-06T10:03:42;7.28;;;4.15;;
21233;SDS011;10774;42.178;26.578;2024-01-06T10:06:08;13.57;;;5.82;;
21233;SDS011;10774;42.178;26.578;2024-01-06T10:08:34;17.02;;;7.57;;
21233;SDS011;10774;42.178;26.578;2024-01-06T10:11:00;15.68;;;5.68;;
21233;SDS011;10774;42.178;26.578;2024-01-06T10:13:26;8.13;;;4.85;;
21233;SDS011;10774;42.178;26.578;2024-01-06T10:15:53;10.88;;;5.20;;
21233;SDS011;10774;42.178;26.578;2024-01-06T10:18:19;7.47;;;4.35;;
21233;SDS011;10774;42.178;26.578;2024-01-06T10:20:45;14.50;;;6.60;;
21233;SDS011;10774;42.178;26.578;2024-01-06T10:23:10;10.07;;;4.32;;
21233;SDS011;10774;42.178;26.578;2024-01-06T10:25:36;8.55;;;4.13;;
21233;SDS011;10774;42.178;26.578;2024-01-06T10:28:02;11.13;;;4.90;;
21233;SDS011;10774;42.178;26.578;2024-01-06T10:30:28;13.77;;;6.07;;
21233;SDS011;10774;42.178;26.578;2024-01-06T10:32:53;11.55;;;5.78;;
21233;SDS011;10774;42.178;26.578;2024-01-06T10:35:19;13.20;;;5.85;;
21233;SDS011;10774;42.178;26.578;2024-01-06T10:37:45;10.57;;;5.88;;
21233;SDS011;10774;42.178;26.578;2024-01-06T10:40:14;13.57;;;6.05;;
21233;SDS011;10774;42.178;26.578;2024-01-06T10:42:44;10.90;;;5.55;;
21233;SDS011;10774;42.178;26.578;2024-01-06T10:45:10;10.98;;;4.43;;
21233;SDS011;10774;42.178;26.578;2024-01-06T10:47:38;10.15;;;4.68;;
21233;SDS011;10774;42.178;26.578;2024-01-06T10:50:06;10.82;;;5.97;;
21233;SDS011;10774;42.178;26.578;2024-01-06T10:52:33;10.35;;;4.78;;
21233;SDS011;10774;42.178;26.578;2024-01-06T10:55:00;10.77;;;5.28;;
21233;SDS011;10774;42.178;26.578;2024-01-06T10:57:27;15.30;;;6.53;;
21233;SDS011;10774;42.178;26.578;2024-01-06T10:59:56;13.88;;;6.43;;
21233;SDS011;10774;42.178;26.578;2024-01-06T11:02:23;10.63;;;6.55;;
21233;SDS011;10774;42.178;26.578;2024-01-06T11:04:50;17.10;;;7.20;;
21233;SDS011;10774;42.178;26.578;2024-01-06T11:07:17;14.98;;;6.60;;
21233;SDS011;10774;42.178;26.578;2024-01-06T11:09:47;12.38;;;6.80;;
21233;SDS011;10774;42.178;26.578;2024-01-06T11:12:22;11.88;;;5.45;;
21233;SDS011;10774;42.178;26.578;2024-01-06T11:14:47;8.95;;;4.90;;
21233;SDS011;10774;42.178;26.578;2024-01-06T11:17:13;12.02;;;6.30;;
21233;SDS011;10774;42.178;26.578;2024-01-06T11:20:05;12.18;;;7.10;;
21233;SDS011;10774;42.178;26.578;2024-01-06T11:22:31;11.20;;;5.65;;
21233;SDS011;10774;42.178;26.578;2024-01-06T11:25:03;13.85;;;5.22;;
21233;SDS011;10774;42.178;26.578;2024-01-06T11:27:32;8.15;;;4.95;;
21233;SDS011;10774;42.178;26.578;2024-01-06T11:29:59;13.32;;;5.50;;
21233;SDS011;10774;42.178;26.578;2024-01-06T11:35:10;15.70;;;6.65;;
21233;SDS011;10774;42.178;26.578;2024-01-06T11:42:56;14.48;;;6.60;;
21233;SDS011;10774;42.178;26.578;2024-01-06T11:45:26;16.40;;;6.63;;
21233;SDS011;10774;42.178;26.578;2024-01-06T11:47:56;11.20;;;5.55;;
21233;SDS011;10774;42.178;26.578;2024-01-06T11:50:27;15.77;;;7.43;;
21233;SDS011;10774;42.178;26.578;2024-01-06T11:52:54;13.60;;;6.68;;
21233;SDS011;10774;42.178;26.578;2024-01-06T11:55:20;15.68;;;8.57;;
21233;SDS011;10774;42.178;26.578;2024-01-06T11:57:46;14.15;;;8.15;;
21233;SDS011;10774;42.178;26.578;2024-01-06T12:00:13;10.48;;;6.00;;
21233;SDS011;10774;42.178;26.578;2024-01-06T12:03:04;12.57;;;6.05;;
21233;SDS011;10774;42.178;26.578;2024-01-06T12:05:30;18.23;;;6.75;;
21233;SDS011;10774;42.178;26.578;2024-01-06T12:07:59;11.70;;;5.25;;
21233;SDS011;10774;42.178;26.578;2024-01-06T12:10:26;8.45;;;5.30;;
21233;SDS011;10774;42.178;26.578;2024-01-06T12:12:59;14.32;;;6.68;;
21233;SDS011;10774;42.178;26.578;2024-01-06T12:15:27;13.77;;;6.05;;
21233;SDS011;10774;42.178;26.578;2024-01-06T12:17:54;9.80;;;4.55;;
21233;SDS011;10774;42.178;26.578;2024-01-06T12:20:20;11.65;;;5.63;;
21233;SDS011;10774;42.178;26.578;2024-01-06T12:22:46;13.20;;;5.93;;
21233;SDS011;10774;42.178;26.578;2024-01-06T12:25:12;10.98;;;5.38;;
21233;SDS011;10774;42.178;26.578;2024-01-06T12:27:43;10.80;;;5.03;;
21233;SDS011;10774;42.178;26.578;2024-01-06T12:30:17;11.85;;;4.93;;
21233;SDS011;10774;42.178;26.578;2024-01-06T12:32:51;9.93;;;4.47;;
21233;SDS011;10774;42.178;26.578;2024-01-06T12:35:17;8.32;;;4.38;;
21233;SDS011;10774;42.178;26.578;2024-01-06T12:37:43;9.23;;;4.47;;
21233;SDS011;10774;42.178;26.578;2024-01-06T12:40:13;12.02;;;5.28;;
21233;SDS011;10774;42.178;26.578;2024-01-06T12:42:39;11.15;;;5.00;;
21233;SDS011;10774;42.178;26.578;2024-01-06T12:45:05;9.63;;;4.65;;
21233;SDS011;10774;42.178;26.578;2024-01-06T12:47:32;8.95;;;4.97;;
21233;SDS011;10774;42.178;26.578;2024-01-06T12:49:57;12.95;;;5.70;;
21233;SDS011;10774;42.178;26.578;2024-01-06T12:52:23;13.05;;;6.15;;
21233;SDS011;10774;42.178;26.578;2024-01-06T12:54:49;10.55;;;5.75;;
21233;SDS011;10774;42.178;26.578;2024-01-06T12:57:14;21.70;;;6.38;;
21233;SDS011;10774;42.178;26.578;2024-01-06T12:59:41;10.15;;;5.18;;
21233;SDS011;10774;42.178;26.578;2024-01-06T13:02:06;14.40;;;6.20;;
21233;SDS011;10774;42.178;26.578;2024-01-06T13:04:32;18.00;;;6.80;;
21233;SDS011;10774;42.178;26.578;2024-01-06T13:06:57;11.13;;;5.65;;
21233;SDS011;10774;42.178;26.578;2024-01-06T13:09:23;13.40;;;5.75;;
21233;SDS011;10774;42.178;26.578;2024-01-06T13:11:49;14.00;;;6.63;;
21233;SDS011;10774;42.178;26.578;2024-01-06T13:14:16;12.93;;;6.10;;
21233;SDS011;10774;42.178;26.578;2024-01-06T13:16:42;12.07;;;5.38;;
21233;SDS011;10774;42.178;26.578;2024-01-06T13:19:08;11.45;;;5.38;;
21233;SDS011;10774;42.178;26.578;2024-01-06T13:21:34;12.48;;;5.40;;
21233;SDS011;10774;42.178;26.578;2024-01-06T13:24:00;13.60;;;6.10;;
21233;SDS011;10774;42.178;26.578;2024-01-06T13:26:27;20.23;;;7.32;;
21233;SDS011;10774;42.178;26.578;2024-01-06T13:28:53;14.75;;;6.60;;
21233;SDS011;10774;42.178;26.578;2024-01-06T13:31:19;22.65;;;11.85;;
21233;SDS011;10774;42.178;26.578;2024-01-06T13:33:45;17.20;;;8.57;;
21233;SDS011;10774;42.178;26.578;2024-01-06T13:36:11;15.45;;;7.93;;
21233;SDS011;10774;42.178;26.578;2024-01-06T13:38:36;20.73;;;8.32;;
21233;SDS011;10774;42.178;26.578;2024-01-06T13:41:01;17.50;;;8.40;;
21233;SDS011;10774;42.178;26.578;2024-01-06T13:43:28;14.23;;;7.80;;
21233;SDS011;10774;42.178;26.578;2024-01-06T13:45:53;19.58;;;6.80;;
21233;SDS011;10774;42.178;26.578;2024-01-06T13:48:19;11.43;;;6.05;;
21233;SDS011;10774;42.178;26.578;2024-01-06T13:50:45;14.85;;;7.63;;
21233;SDS011;10774;42.178;26.578;2024-01-06T13:53:11;17.98;;;6.25;;
21233;SDS011;10774;42.178;26.578;2024-01-06T13:55:36;11.98;;;6.30;;
21233;SDS011;10774;42.178;26.578;2024-01-06T13:58:02;10.60;;;6.10;;
21233;SDS011;10774;42.178;26.578;2024-01-06T14:00:27;15.20;;;7.05;;
21233;SDS011;10774;42.178;26.578;2024-01-06T14:02:53;15.98;;;8.60;;
21233;SDS011;10774;42.178;26.578;2024-01-06T14:05:22;16.40;;;7.22;;
21233;SDS011;10774;42.178;26.578;2024-01-06T14:07:56;13.45;;;6.47;;
21233;SDS011;10774;42.178;26.578;2024-01-06T14:10:22;16.65;;;5.68;;
21233;SDS011;10774;42.178;26.578;2024-01-06T14:12:47;13.38;;;6.72;;
21233;SDS011;10774;42.178;26.578;2024-01-06T14:15:14;11.52;;;5.32;;
21233;SDS011;10774;42.178;26.578;2024-01-06T14:17:46;16.50;;;6.45;;
21233;SDS011;10774;42.178;26.578;2024-01-06T14:20:14;16.90;;;6.93;;
21233;SDS011;10774;42.178;26.578;2024-01-06T14:22:43;10.32;;;5.28;;
21233;SDS011;10774;42.178;26.578;2024-01-06T14:25:09;17.45;;;6.85;;
21233;SDS011;10774;42.178;26.578;2024-01-06T14:27:34;15.70;;;6.43;;
21233;SDS011;10774;42.178;26.578;2024-01-06T14:30:00;14.65;;;6.07;;
21233;SDS011;10774;42.178;26.578;2024-01-06T14:32:26;15.02;;;6.43;;
21233;SDS011;10774;42.178;26.578;2024-01-06T14:34:51;11.57;;;5.53;;
21233;SDS011;10774;42.178;26.578;2024-01-06T14:37:17;19.35;;;5.53;;
21233;SDS011;10774;42.178;26.578;2024-01-06T14:39:42;14.98;;;6.45;;
21233;SDS011;10774;42.178;26.578;2024-01-06T14:42:08;15.27;;;6.05;;
21233;SDS011;10774;42.178;26.578;2024-01-06T14:44:34;12.57;;;4.97;;
21233;SDS011;10774;42.178;26.578;2024-01-06T14:47:00;18.30;;;5.82;;
21233;SDS011;10774;42.178;26.578;2024-01-06T14:49:27;19.40;;;6.95;;
21233;SDS011;10774;42.178;26.578;2024-01-06T14:51:52;12.93;;;5.57;;
21233;SDS011;10774;42.178;26.578;2024-01-06T14:54:18;14.30;;;5.03;;
21233;SDS011;10774;42.178;26.578;2024-01-06T14:56:43;9.73;;;5.20;;
21233;SDS011;10774;42.178;26.578;2024-01-06T14:59:09;10.63;;;4.70;;
21233;SDS011;10774;42.178;26.578;2024-01-06T15:01:34;12.20;;;5.30;;